Time;durP1;ratioP1;P1;durP2;ratioP2;P2;SDS_P1;SDS_P2;PMS_P1;PMS_P2;Temp;Humidity;BMP_temperature;BMP_pressure;BME280_temperature;BME280_humidity;BME280_pressure;Samples;Min_cycle;Max_cycle;Signal;HPM_P1;HPM_P2
2022/01/30 00:01:52;;;;;;;10.60;3.05;;;8.40;85.50;;;;;;5116261;27;20339;-70
2022/01/30 00:04:20;;;;;;;15.40;4.72;;;8.50;85.90;;;;;;5118327;27;20205;-70
2022/01/30 00:06:48;;;;;;;13.30;3.53;;;8.40;85.80;;;;;;5114071;27;20209;-70
2022/01/30 00:09:19;;;;;;;10.65;3.60;;;8.50;85.80;;;;;;5114218;27;20221;-71
2022/01/30 00:11:51;;;;;;;9.38;3.63;;;8.50;85.70;;;;;;5114285;27;20204;-70
2022/01/30 00:14:21;;;;;;;12.03;3.80;;;8.50;85.70;;;;;;5121870;27;20215;-69
2022/01/30 00:16:57;;;;;;;10.73;3.63;;;8.50;85.80;;;;;;5110955;27;20541;-70
2022/01/30 00:19:32;;;;;;;7.30;2.90;;;8.50;85.80;;;;;;5116873;27;20206;-69
2022/01/30 00:22:13;;;;;;;9.50;3.53;;;8.50;85.70;;;;;;5113497;27;20503;-71
2022/01/30 00:24:48;;;;;;;8.10;2.97;;;8.50;85.40;;;;;;5114589;27;20427;-68
2022/01/30 00:27:26;;;;;;;9.65;3.65;;;8.50;85.50;;;;;;5116636;27;20481;-71
2022/01/30 00:29:54;;;;;;;8.20;3.27;;;8.50;85.40;;;;;;5115959;27;20206;-71
2022/01/30 00:32:24;;;;;;;13.57;4.27;;;8.50;85.50;;;;;;5112514;27;20885;-70
2022/01/30 00:35:12;;;;;;;8.13;3.05;;;8.40;85.10;;;;;;5116275;27;20579;-71
2022/01/30 00:37:43;;;;;;;14.35;4.05;;;8.40;85.40;;;;;;5114281;27;20200;-69
2022/01/30 00:40:31;;;;;;;9.40;3.67;;;8.50;85.20;;;;;;5117925;27;20239;-70
2022/01/30 00:42:59;;;;;;;13.07;3.80;;;8.50;85.10;;;;;;5113581;27;20208;-71
2022/01/30 00:45:27;;;;;;;19.77;3.65;;;8.40;85.00;;;;;;5113025;27;20260;-71
2022/01/30 00:47:57;;;;;;;9.85;3.78;;;8.40;85.00;;;;;;5097095;27;20206;-70
2022/01/30 00:50:25;;;;;;;20.17;4.90;;;8.40;85.00;;;;;;5098209;27;20208;-69
2022/01/30 00:52:55;;;;;;;13.15;3.95;;;8.50;85.00;;;;;;5105193;27;20228;-71
2022/01/30 00:55:24;;;;;;;10.75;4.00;;;8.40;85.00;;;;;;5114472;27;20238;-72
2022/01/30 00:57:53;;;;;;;18.65;5.70;;;8.40;85.10;;;;;;5102414;27;20198;-70
2022/01/30 01:00:21;;;;;;;12.30;4.32;;;8.40;84.90;;;;;;5119370;27;20254;-69
2022/01/30 01:02:49;;;;;;;9.80;4.40;;;8.30;84.50;;;;;;5113009;27;20270;-70
2022/01/30 01:05:19;;;;;;;9.63;3.97;;;8.30;85.00;;;;;;5115603;27;20213;-71
2022/01/30 01:07:49;;;;;;;15.90;4.60;;;8.40;85.00;;;;;;5119323;27;21179;-71
2022/01/30 01:10:27;;;;;;;16.15;6.28;;;8.40;84.90;;;;;;5098123;27;20466;-69
2022/01/30 01:13:13;;;;;;;13.88;3.90;;;8.30;84.90;;;;;;5111546;27;20754;-70
2022/01/30 01:24:06;;;;;;;13.23;3.60;;;8.30;84.70;;;;;;5096483;27;20205;-72
2022/01/30 01:26:36;;;;;;;15.20;4.25;;;8.30;84.70;;;;;;5115878;27;21112;-70
2022/01/30 01:29:05;;;;;;;14.05;4.10;;;8.30;84.70;;;;;;5115439;27;20220;-70
2022/01/30 01:31:33;;;;;;;23.80;4.33;;;8.30;84.80;;;;;;5116399;27;20240;-70
2022/01/30 01:34:25;;;;;;;11.13;4.30;;;8.40;84.50;;;;;;5099499;28;20507;-70
2022/01/30 01:36:54;;;;;;;15.00;4.00;;;8.40;84.50;;;;;;5118145;27;20492;-70
2022/01/30 01:39:23;;;;;;;12.45;3.90;;;8.40;84.40;;;;;;5115998;27;20207;-70
2022/01/30 01:41:51;;;;;;;12.52;3.40;;;8.40;84.00;;;;;;5098133;28;20637;-70
2022/01/30 01:44:28;;;;;;;12.40;4.00;;;8.40;84.20;;;;;;5094234;28;20950;-70
2022/01/30 01:46:56;;;;;;;9.90;3.60;;;8.50;84.00;;;;;;5095316;28;20485;-70
2022/01/30 01:49:28;;;;;;;10.88;4.07;;;8.50;82.70;;;;;;5115043;27;20926;-70
2022/01/30 01:52:18;;;;;;;9.93;2.73;;;8.50;83.60;;;;;;5117316;27;20202;-70
2022/01/30 01:54:47;;;;;;;8.38;3.55;;;8.50;83.40;;;;;;5098220;28;21218;-70
2022/01/30 01:57:16;;;;;;;8.20;2.90;;;8.50;83.50;;;;;;5100474;27;20228;-70
2022/01/30 01:59:49;;;;;;;12.77;3.33;;;8.50;82.50;;;;;;5104683;27;20491;-70
2022/01/30 02:02:46;;;;;;;8.15;3.30;;;8.50;83.20;;;;;;5121137;27;20987;-70
2022/01/30 02:05:15;;;;;;;13.75;4.15;;;8.50;83.00;;;;;;5120349;27;20254;-70
2022/01/30 02:10:37;;;;;;;15.20;4.57;;;8.40;82.80;;;;;;5099262;27;20307;-71
2022/01/30 02:13:29;;;;;;;20.33;3.78;;;8.40;82.20;;;;;;5097961;27;20515;-71
2022/01/30 02:24:27;;;;;;;15.75;3.65;;;8.50;82.00;;;;;;5117423;27;20199;-71
2022/01/30 02:26:56;;;;;;;11.52;3.25;;;8.50;82.00;;;;;;5095199;27;20355;-71
2022/01/30 02:29:24;;;;;;;10.48;3.28;;;8.50;81.30;;;;;;5099759;27;20758;-74
2022/01/30 02:31:56;;;;;;;11.50;3.10;;;8.50;81.50;;;;;;5105489;27;20707;-70
2022/01/30 02:34:28;;;;;;;11.55;3.72;;;8.40;80.40;;;;;;5116366;27;20199;-72
2022/01/30 02:36:57;;;;;;;15.80;3.60;;;8.40;80.70;;;;;;5096092;28;20308;-73
2022/01/30 02:39:26;;;;;;;7.68;2.88;;;8.40;80.80;;;;;;5099911;27;20739;-72
2022/01/30 02:41:55;;;;;;;8.45;3.70;;;8.40;81.30;;;;;;5115185;27;20201;-72
2022/01/30 02:44:27;;;;;;;9.70;3.60;;;8.30;78.30;;;;;;5098624;27;20601;-72
2022/01/30 02:46:59;;;;;;;13.10;3.80;;;8.40;80.50;;;;;;5095301;27;21014;-71
2022/01/30 02:49:42;;;;;;;15.13;4.40;;;8.40;80.80;;;;;;5106312;27;20473;-72
2022/01/30 02:52:12;;;;;;;16.73;3.85;;;8.40;80.30;;;;;;5102739;27;20460;-72
2022/01/30 02:54:41;;;;;;;13.98;4.45;;;8.40;79.90;;;;;;5101799;27;20212;-71
2022/01/30 02:57:10;;;;;;;13.90;3.78;;;8.40;80.50;;;;;;5116727;27;20241;-71
2022/01/30 02:59:39;;;;;;;16.45;3.90;;;8.40;80.20;;;;;;5106159;27;20202;-72
2022/01/30 03:02:07;;;;;;;8.10;3.50;;;8.40;78.60;;;;;;5116371;27;20236;-73
2022/01/30 03:04:35;;;;;;;8.65;3.25;;;8.40;79.80;;;;;;5097712;27;20878;-73
2022/01/30 03:07:03;;;;;;;21.23;4.95;;;8.40;79.70;;;;;;5118913;27;20778;-72
2022/01/30 03:09:45;;;;;;;13.53;4.53;;;8.40;79.00;;;;;;5099859;27;20262;-72
2022/01/30 03:12:13;;;;;;;13.93;3.60;;;8.30;78.90;;;;;;5101678;27;20458;-72
2022/01/30 03:14:42;;;;;;;13.38;3.55;;;8.30;78.30;;;;;;5097101;27;20737;-73
2022/01/30 03:17:10;;;;;;;11.13;3.45;;;8.30;79.00;;;;;;5099634;27;20331;-71
2022/01/30 03:19:38;;;;;;;14.55;3.53;;;8.30;79.20;;;;;;5116987;27;20681;-72
2022/01/30 03:22:06;;;;;;;14.75;3.38;;;8.30;79.30;;;;;;5098413;27;20813;-72
2022/01/30 03:24:36;;;;;;;14.82;3.60;;;8.30;78.60;;;;;;5098165;27;20208;-71
2022/01/30 03:27:32;;;;;;;13.82;2.97;;;8.30;78.50;;;;;;5093610;27;20251;-72
2022/01/30 03:30:06;;;;;;;9.85;3.17;;;8.30;75.70;;;;;;5106710;27;21038;-72
2022/01/30 03:32:57;;;;;;;11.40;3.07;;;8.30;77.50;;;;;;5107928;27;20229;-71
2022/01/30 03:35:26;;;;;;;11.77;2.80;;;8.20;77.60;;;;;;5106356;27;20450;-72
2022/01/30 03:37:54;;;;;;;9.73;3.13;;;8.30;78.10;;;;;;5098594;27;20458;-73
2022/01/30 03:40:22;;;;;;;13.10;3.83;;;8.20;76.80;;;;;;5102740;27;20860;-73
2022/01/30 03:42:52;;;;;;;8.90;3.25;;;8.20;77.50;;;;;;5105630;27;20547;-73
2022/01/30 03:45:20;;;;;;;14.57;4.00;;;8.20;77.30;;;;;;5115059;27;20205;-73
2022/01/30 03:47:48;;;;;;;11.73;3.10;;;8.20;77.70;;;;;;5116812;27;20209;-72
2022/01/30 03:50:23;;;;;;;10.82;3.05;;;8.10;76.10;;;;;;5102093;27;20502;-74
2022/01/30 03:52:51;;;;;;;21.70;3.70;;;8.20;77.10;;;;;;5098675;27;20213;-73
2022/01/30 03:55:27;;;;;;;9.13;3.20;;;8.10;77.30;;;;;;5100283;27;20228;-72
2022/01/30 03:57:57;;;;;;;13.90;3.80;;;8.10;76.10;;;;;;5100941;27;20450;-73
2022/01/30 04:00:27;;;;;;;15.33;4.13;;;8.10;76.90;;;;;;5098526;27;20889;-73
2022/01/30 04:03:01;;;;;;;13.95;3.67;;;8.10;77.30;;;;;;5099904;27;20466;-73
2022/01/30 04:05:29;;;;;;;13.43;3.92;;;8.10;77.10;;;;;;5105530;27;20311;-72
2022/01/30 04:08:02;;;;;;;11.57;3.60;;;8.10;77.10;;;;;;5103114;27;20203;-73
2022/01/30 04:10:38;;;;;;;12.00;3.72;;;8.10;76.80;;;;;;5101711;27;20227;-73
2022/01/30 04:13:20;;;;;;;10.07;3.23;;;8.10;76.50;;;;;;5099492;27;20212;-72
2022/01/30 04:16:11;;;;;;;14.90;3.47;;;8.10;76.50;;;;;;5109465;27;20494;-72
2022/01/30 04:19:09;;;;;;;9.55;3.70;;;8.00;76.10;;;;;;5067934;27;20221;-72
2022/01/30 04:21:49;;;;;;;13.10;4.35;;;7.90;75.80;;;;;;5117415;27;20808;-72
2022/01/30 04:24:35;;;;;;;7.40;3.10;;;7.90;76.20;;;;;;5096629;27;20210;-72
2022/01/30 04:27:20;;;;;;;10.10;4.00;;;7.90;76.40;;;;;;5103160;27;20481;-73
2022/01/30 04:29:50;;;;;;;11.38;3.75;;;7.80;76.00;;;;;;5117454;27;20209;-73
2022/01/30 04:32:48;;;;;;;11.95;3.78;;;7.80;75.40;;;;;;5021858;28;20371;-72
2022/01/30 04:35:33;;;;;;;12.05;4.18;;;7.70;75.70;;;;;;5119993;27;20285;-73
2022/01/30 04:38:38;;;;;;;15.05;4.57;;;7.70;75.80;;;;;;5097150;27;20719;-73
2022/01/30 04:41:56;;;;;;;11.18;3.85;;;7.60;74.50;;;;;;5093809;27;20214;-73
2022/01/30 04:57:23;;;;;;;15.23;4.80;;;7.50;75.10;;;;;;5094551;27;20233;-73
2022/01/30 05:00:34;;;;;;;21.08;3.95;;;7.50;74.30;;;;;;5095793;27;20388;-71
2022/01/30 05:06:54;;;;;;;9.93;3.38;;;7.50;74.60;;;;;;5090557;27;20242;-72
2022/01/30 05:09:41;;;;;;;18.65;4.20;;;7.50;74.30;;;;;;5117028;27;20214;-72
2022/01/30 05:12:30;;;;;;;22.77;4.25;;;7.40;73.70;;;;;;5096299;27;20226;-73
2022/01/30 05:15:27;;;;;;;16.70;4.38;;;7.40;73.70;;;;;;5092178;27;20269;-72
2022/01/30 05:18:18;;;;;;;18.30;4.72;;;7.30;73.50;;;;;;5100016;27;20207;-72
2022/01/30 05:21:18;;;;;;;14.57;3.78;;;7.30;73.20;;;;;;5106207;27;20197;-72
2022/01/30 05:23:52;;;;;;;19.52;4.53;;;7.30;73.00;;;;;;5117798;27;20783;-71
2022/01/30 05:26:41;;;;;;;16.50;4.40;;;7.20;72.80;;;;;;5101053;27;20226;-71
2022/01/30 05:29:36;;;;;;;22.77;5.30;;;7.20;73.50;;;;;;5093706;27;20289;-71
2022/01/30 05:32:15;;;;;;;16.10;4.72;;;7.20;73.30;;;;;;5100375;27;20815;-71
2022/01/30 05:34:54;;;;;;;20.23;4.22;;;7.20;73.20;;;;;;5100235;28;20305;-72
2022/01/30 05:37:32;;;;;;;16.30;4.63;;;7.10;73.30;;;;;;5095402;27;20227;-71
2022/01/30 05:40:39;;;;;;;17.63;4.55;;;7.10;72.60;;;;;;5117070;27;20205;-72
2022/01/30 05:43:18;;;;;;;11.00;3.97;;;7.00;72.50;;;;;;5095722;27;20303;-72
2022/01/30 05:46:10;;;;;;;15.55;3.67;;;7.00;71.70;;;;;;5098438;28;20721;-71
2022/01/30 05:48:59;;;;;;;11.27;3.83;;;7.00;72.90;;;;;;5112057;27;20248;-73
2022/01/30 05:51:34;;;;;;;19.27;4.32;;;7.00;71.30;;;;;;5096763;27;20236;-73
2022/01/30 05:54:22;;;;;;;9.82;3.30;;;6.90;71.10;;;;;;5111365;28;20300;-73
2022/01/30 05:56:50;;;;;;;18.85;4.75;;;6.90;70.60;;;;;;5094778;28;20810;-71
2022/01/30 05:59:18;;;;;;;23.98;4.35;;;6.90;71.90;;;;;;5099161;28;20213;-72
2022/01/30 06:02:11;;;;;;;13.73;4.80;;;7.00;70.70;;;;;;5114388;27;20233;-71
2022/01/30 06:04:41;;;;;;;23.83;6.10;;;7.00;71.90;;;;;;5101551;27;20271;-71
2022/01/30 06:07:10;;;;;;;22.73;4.85;;;6.80;69.80;;;;;;5112226;27;20253;-70
2022/01/30 06:09:38;;;;;;;16.75;5.85;;;6.90;71.90;;;;;;5097431;27;20261;-71
2022/01/30 06:12:07;;;;;;;15.38;4.40;;;6.90;71.40;;;;;;5102424;27;20731;-71
2022/01/30 06:14:37;;;;;;;18.30;4.22;;;6.90;71.10;;;;;;5099228;28;20226;-71
2022/01/30 06:17:10;;;;;;;11.52;3.80;;;6.90;71.70;;;;;;5096386;27;20229;-71
2022/01/30 06:20:10;;;;;;;24.33;4.82;;;6.90;71.60;;;;;;5089534;27;20249;-71
2022/01/30 06:23:17;;;;;;;18.95;4.82;;;6.90;71.80;;;;;;5066399;28;20243;-72
2022/01/30 06:26:04;;;;;;;19.92;4.80;;;6.90;71.70;;;;;;5072165;28;20238;-70
2022/01/30 06:28:50;;;;;;;25.15;4.50;;;6.90;71.50;;;;;;5102903;27;20298;-71
2022/01/30 06:31:37;;;;;;;14.65;3.80;;;6.90;71.80;;;;;;5116618;27;20288;-71
2022/01/30 06:34:23;;;;;;;14.13;3.70;;;6.90;71.50;;;;;;5114551;27;20210;-71
2022/01/30 06:37:16;;;;;;;14.68;3.67;;;6.80;71.00;;;;;;5115502;27;20245;-71
2022/01/30 06:39:52;;;;;;;8.55;3.65;;;6.80;71.80;;;;;;5093413;28;20703;-71
2022/01/30 06:42:39;;;;;;;24.42;3.97;;;6.80;71.40;;;;;;5109271;27;20304;-70
2022/01/30 06:45:26;;;;;;;9.00;3.42;;;6.80;71.60;;;;;;5117835;27;20324;-72
2022/01/30 06:48:13;;;;;;;16.25;4.85;;;6.80;71.40;;;;;;5115573;27;20208;-71
2022/01/30 06:50:43;;;;;;;19.83;4.55;;;6.70;71.20;;;;;;5118809;27;20700;-71
2022/01/30 06:53:31;;;;;;;17.15;4.68;;;6.80;71.60;;;;;;5116559;27;20345;-71
2022/01/30 06:56:17;;;;;;;13.32;3.80;;;6.80;71.70;;;;;;5119162;27;20238;-71
2022/01/30 06:59:14;;;;;;;17.45;4.93;;;6.80;71.40;;;;;;5046889;27;20260;-70
2022/01/30 07:02:01;;;;;;;14.13;3.85;;;6.70;71.00;;;;;;5121743;27;20230;-71
2022/01/30 07:04:48;;;;;;;16.60;3.58;;;6.70;71.60;;;;;;5114266;27;20219;-72
2022/01/30 07:07:29;;;;;;;20.55;4.22;;;6.60;71.40;;;;;;5109027;27;20227;-71
2022/01/30 07:09:58;;;;;;;15.18;3.90;;;6.70;71.80;;;;;;5119461;27;20201;-70
2022/01/30 07:12:26;;;;;;;20.67;3.80;;;6.70;71.60;;;;;;5118651;27;20274;-72
2022/01/30 07:14:54;;;;;;;15.32;4.60;;;6.70;71.70;;;;;;5102090;27;20194;-72
2022/01/30 07:17:22;;;;;;;25.17;4.10;;;6.70;71.40;;;;;;5115003;27;20284;-72
2022/01/30 07:19:50;;;;;;;11.93;3.97;;;6.70;71.40;;;;;;5117013;27;20654;-72
2022/01/30 07:22:18;;;;;;;12.85;4.30;;;6.70;71.70;;;;;;5123533;27;20202;-71
2022/01/30 07:24:46;;;;;;;13.88;3.78;;;6.70;71.30;;;;;;5101389;27;20216;-72
2022/01/30 07:27:15;;;;;;;15.38;4.20;;;6.60;71.00;;;;;;5117066;27;20228;-71
2022/01/30 07:29:43;;;;;;;17.02;4.93;;;6.60;71.30;;;;;;5123320;27;20259;-72
2022/01/30 07:32:11;;;;;;;17.25;4.47;;;6.70;71.60;;;;;;5102514;27;20276;-71
2022/01/30 07:34:39;;;;;;;16.95;4.40;;;6.70;71.40;;;;;;5099308;27;20268;-71
2022/01/30 07:37:07;;;;;;;18.65;3.42;;;6.70;71.60;;;;;;5116652;27;20223;-71
2022/01/30 07:39:36;;;;;;;11.02;3.83;;;6.70;71.70;;;;;;5119784;27;20720;-71
2022/01/30 07:42:05;;;;;;;17.63;3.85;;;6.70;71.30;;;;;;5114895;27;20198;-71
2022/01/30 07:44:35;;;;;;;13.18;3.40;;;6.70;71.70;;;;;;5096096;27;20788;-71
2022/01/30 07:47:03;;;;;;;13.85;3.88;;;6.70;71.80;;;;;;5094687;27;20234;-72
2022/01/30 07:49:31;;;;;;;18.95;4.22;;;6.70;71.60;;;;;;5112558;27;20271;-72
2022/01/30 07:52:00;;;;;;;21.02;4.40;;;6.80;71.40;;;;;;5115402;27;20214;-71
2022/01/30 07:54:28;;;;;;;15.93;3.67;;;6.80;71.60;;;;;;5112923;27;20789;-72
2022/01/30 07:56:56;;;;;;;15.93;3.72;;;6.70;71.20;;;;;;5110187;27;20226;-71
2022/01/30 07:59:24;;;;;;;11.00;3.22;;;6.70;71.10;;;;;;5114509;27;20206;-72
2022/01/30 08:01:55;;;;;;;17.13;4.03;;;6.70;71.60;;;;;;5095901;27;20216;-70
2022/01/30 08:04:25;;;;;;;22.85;4.25;;;6.70;71.70;;;;;;5121901;27;20233;-70
2022/01/30 08:06:53;;;;;;;14.43;4.63;;;6.80;71.80;;;;;;5104986;27;20271;-71
2022/01/30 08:09:29;;;;;;;14.00;4.20;;;6.80;71.80;;;;;;5121545;27;20199;-70
2022/01/30 08:11:58;;;;;;;17.30;4.35;;;6.70;71.70;;;;;;5116964;27;20268;-69
2022/01/30 08:14:26;;;;;;;13.95;3.47;;;6.70;71.80;;;;;;5112878;27;20284;-71
2022/01/30 08:16:56;;;;;;;12.70;3.65;;;6.80;72.00;;;;;;5111100;27;20239;-70
2022/01/30 08:19:25;;;;;;;11.77;4.05;;;6.80;72.00;;;;;;5111716;27;20205;-70
2022/01/30 08:21:56;;;;;;;9.15;3.25;;;6.80;71.80;;;;;;5107185;27;20186;-70
2022/01/30 08:24:24;;;;;;;19.23;4.05;;;6.90;71.80;;;;;;5092366;27;20269;-70
2022/01/30 08:26:52;;;;;;;19.20;3.90;;;6.90;71.70;;;;;;5113480;27;20473;-71
2022/01/30 08:29:20;;;;;;;22.58;3.90;;;6.90;71.70;;;;;;5116921;27;20222;-70
2022/01/30 08:31:48;;;;;;;16.15;4.35;;;6.90;71.70;;;;;;5114607;27;20222;-69
2022/01/30 08:34:18;;;;;;;27.95;4.25;;;6.90;71.70;;;;;;5113059;27;20250;-69
2022/01/30 08:36:46;;;;;;;15.45;3.65;;;6.80;71.40;;;;;;5121189;27;20227;-71
2022/01/30 08:39:14;;;;;;;18.17;4.53;;;6.70;71.80;;;;;;5119869;27;20209;-72
2022/01/30 08:41:41;;;;;;;12.27;3.42;;;6.70;71.90;;;;;;5115246;27;20217;-71
2022/01/30 08:44:09;;;;;;;11.88;3.80;;;6.70;72.00;;;;;;5118023;27;20698;-71
2022/01/30 08:46:38;;;;;;;17.25;3.65;;;6.70;72.10;;;;;;5114527;27;20908;-71
2022/01/30 08:49:07;;;;;;;10.15;3.50;;;6.80;72.20;;;;;;5099967;27;20723;-71
2022/01/30 08:51:37;;;;;;;14.02;4.10;;;6.80;72.00;;;;;;5117738;27;20265;-70
2022/01/30 08:54:05;;;;;;;13.63;3.25;;;6.80;72.10;;;;;;5108013;27;20267;-70
2022/01/30 08:56:33;;;;;;;17.08;3.72;;;6.80;72.00;;;;;;5114129;27;20235;-68
2022/01/30 08:59:01;;;;;;;11.20;3.05;;;6.80;71.90;;;;;;5113980;27;20240;-71
2022/01/30 09:01:32;;;;;;;15.18;4.07;;;6.80;72.00;;;;;;5112402;27;20230;-69
2022/01/30 09:04:03;;;;;;;9.05;3.45;;;6.70;72.20;;;;;;5110850;27;20191;-70
2022/01/30 09:06:31;;;;;;;10.48;2.85;;;6.70;72.30;;;;;;5112146;27;20258;-72
2022/01/30 09:09:03;;;;;;;13.90;3.38;;;6.80;72.30;;;;;;5098256;27;20195;-71
2022/01/30 09:11:31;;;;;;;11.07;3.53;;;6.80;72.30;;;;;;5115396;27;20206;-72
2022/01/30 09:13:59;;;;;;;13.23;3.40;;;6.80;72.30;;;;;;5111104;27;20764;-71
2022/01/30 09:16:27;;;;;;;14.68;2.95;;;6.80;72.30;;;;;;5116849;27;20274;-70
2022/01/30 09:18:56;;;;;;;18.10;3.95;;;6.90;72.30;;;;;;5100723;27;20211;-72
2022/01/30 09:21:24;;;;;;;15.85;3.63;;;6.90;72.50;;;;;;5119646;27;20794;-72
2022/01/30 09:23:53;;;;;;;10.73;3.45;;;6.90;72.50;;;;;;5112729;27;20240;-71
2022/01/30 09:26:22;;;;;;;16.00;3.60;;;7.00;72.50;;;;;;5115363;27;20278;-70
2022/01/30 09:28:50;;;;;;;14.02;3.53;;;6.90;72.70;;;;;;5107909;27;20247;-70
2022/01/30 09:31:18;;;;;;;11.95;4.05;;;7.00;72.70;;;;;;5111576;27;20232;-70
2022/01/30 09:33:47;;;;;;;15.00;3.78;;;7.00;72.50;;;;;;5109378;27;20726;-70
2022/01/30 09:36:15;;;;;;;10.95;3.63;;;7.00;72.60;;;;;;5112293;27;20250;-70
2022/01/30 09:38:50;;;;;;;9.63;3.05;;;7.00;72.70;;;;;;5109080;27;20596;-70
2022/01/30 09:41:19;;;;;;;16.05;4.03;;;7.00;72.80;;;;;;5112087;27;20263;-70
2022/01/30 09:43:49;;;;;;;13.80;3.97;;;7.10;72.80;;;;;;5107780;27;20204;-74
2022/01/30 09:46:22;;;;;;;11.35;4.13;;;7.10;72.50;;;;;;5109564;27;20229;-73
2022/01/30 09:48:52;;;;;;;10.15;3.80;;;7.10;72.60;;;;;;5111931;27;20202;-70
2022/01/30 09:51:20;;;;;;;20.52;3.95;;;7.10;72.70;;;;;;5113949;27;20221;-70
2022/01/30 09:53:49;;;;;;;13.05;3.90;;;7.10;72.60;;;;;;5089932;28;20226;-72
2022/01/30 09:56:18;;;;;;;14.77;5.38;;;7.00;71.70;;;;;;5108288;27;20224;-71
2022/01/30 09:58:48;;;;;;;10.90;3.67;;;7.00;72.30;;;;;;5096420;28;20674;-71
2022/01/30 10:01:16;;;;;;;15.57;4.28;;;7.10;72.60;;;;;;5113405;27;20342;-73
2022/01/30 10:03:44;;;;;;;14.00;3.67;;;7.20;72.30;;;;;;5111257;27;20208;-73
2022/01/30 10:06:18;;;;;;;15.40;4.82;;;7.20;71.70;;;;;;5094671;27;20237;-73
2022/01/30 10:08:48;;;;;;;14.13;3.65;;;7.20;72.00;;;;;;5111825;27;20704;-70
2022/01/30 10:11:32;;;;;;;13.80;4.18;;;7.20;71.90;;;;;;5109457;27;20229;-72
2022/01/30 10:14:07;;;;;;;13.13;3.92;;;7.20;72.10;;;;;;5105686;27;20237;-69
2022/01/30 10:16:37;;;;;;;10.80;3.70;;;7.20;72.30;;;;;;5096330;27;20234;-71
2022/01/30 10:19:11;;;;;;;9.32;3.13;;;7.20;71.80;;;;;;5117081;27;20208;-69
2022/01/30 10:21:40;;;;;;;21.08;4.90;;;7.20;72.10;;;;;;5116780;27;20233;-72
2022/01/30 10:24:25;;;;;;;9.60;3.67;;;7.20;72.20;;;;;;5116288;27;20284;-72
2022/01/30 10:26:57;;;;;;;15.43;4.20;;;7.30;71.70;;;;;;5096685;27;20720;-71
2022/01/30 10:29:29;;;;;;;18.63;3.65;;;7.30;72.00;;;;;;5113265;27;20195;-71
2022/01/30 10:32:03;;;;;;;10.80;3.70;;;7.20;71.80;;;;;;5101521;27;20239;-71
2022/01/30 10:34:31;;;;;;;23.02;5.07;;;7.30;71.90;;;;;;5117906;27;20234;-71
2022/01/30 10:37:13;;;;;;;11.98;3.13;;;7.30;71.50;;;;;;5116743;27;20839;-71
2022/01/30 10:40:04;;;;;;;13.13;3.22;;;7.30;70.90;;;;;;5117083;27;20217;-70
2022/01/30 10:42:41;;;;;;;14.40;4.40;;;7.40;71.80;;;;;;5100370;27;20266;-72
2022/01/30 10:45:13;;;;;;;14.77;3.38;;;7.40;71.80;;;;;;5115459;27;20249;-71
2022/01/30 10:47:42;;;;;;;16.70;3.67;;;7.40;71.20;;;;;;5119424;27;20219;-70
2022/01/30 10:50:14;;;;;;;8.80;3.50;;;7.30;71.50;;;;;;5122174;27;20724;-71
2022/01/30 10:52:57;;;;;;;20.38;4.57;;;7.40;71.50;;;;;;5099506;27;20273;-73
2022/01/30 10:55:43;;;;;;;18.77;3.88;;;7.40;71.20;;;;;;5114426;27;20692;-73
2022/01/30 10:58:12;;;;;;;12.65;3.80;;;7.40;71.40;;;;;;5112344;27;20246;-70
2022/01/30 11:00:47;;;;;;;19.80;3.80;;;7.40;71.20;;;;;;5114257;27;20228;-73
2022/01/30 11:03:35;;;;;;;12.93;3.70;;;7.40;70.80;;;;;;5115463;27;20211;-70
2022/01/30 11:06:06;;;;;;;10.32;4.65;;;7.40;70.80;;;;;;5117674;27;20233;-69
2022/01/30 11:08:36;;;;;;;13.75;3.63;;;7.40;70.50;;;;;;5113449;27;20606;-72
2022/01/30 11:11:11;;;;;;;7.45;2.97;;;7.40;70.40;;;;;;5099853;27;20224;-71
2022/01/30 11:13:58;;;;;;;16.20;4.07;;;7.40;70.90;;;;;;5115265;27;20880;-71
2022/01/30 11:19:15;;;;;;;24.13;4.85;;;7.40;70.60;;;;;;5120848;27;20299;-71
2022/01/30 11:21:45;;;;;;;12.55;3.55;;;7.40;69.90;;;;;;5111424;27;20665;-71
2022/01/30 11:24:15;;;;;;;15.80;3.72;;;7.40;69.70;;;;;;5118327;27;20208;-71
2022/01/30 11:26:44;;;;;;;14.70;4.68;;;7.40;70.10;;;;;;5119399;27;20625;-72
2022/01/30 11:29:14;;;;;;;22.85;3.60;;;7.30;68.90;;;;;;5115250;27;20194;-72
2022/01/30 11:31:45;;;;;;;17.23;3.88;;;7.30;69.70;;;;;;5116882;27;20772;-71
2022/01/30 11:34:15;;;;;;;17.83;3.92;;;7.30;69.20;;;;;;5099572;27;20212;-69
2022/01/30 11:36:49;;;;;;;11.50;3.75;;;7.30;70.20;;;;;;5105532;27;20232;-72
2022/01/30 11:39:19;;;;;;;15.02;3.85;;;7.30;69.20;;;;;;5121034;27;20204;-70
2022/01/30 11:42:17;;;;;;;17.38;4.55;;;7.30;69.30;;;;;;5113414;27;20202;-71
2022/01/30 11:44:47;;;;;;;17.30;4.25;;;7.30;68.40;;;;;;5114834;27;20216;-73
2022/01/30 11:47:26;;;;;;;10.90;3.70;;;7.40;69.60;;;;;;5111810;27;20232;-71
2022/01/30 11:50:07;;;;;;;14.80;4.18;;;7.40;69.40;;;;;;5113410;27;20735;-71
2022/01/30 11:52:56;;;;;;;17.33;4.38;;;7.40;69.70;;;;;;5117152;27;21117;-69
2022/01/30 11:55:53;;;;;;;14.10;4.50;;;7.40;69.20;;;;;;5099849;27;20243;-71
2022/01/30 11:58:54;;;;;;;15.30;4.70;;;7.40;69.50;;;;;;5117056;27;20195;-71
2022/01/30 12:01:36;;;;;;;21.08;4.30;;;7.40;69.40;;;;;;5069801;27;20257;-71
2022/01/30 12:04:09;;;;;;;22.50;5.53;;;7.40;69.10;;;;;;5112819;27;20263;-72
2022/01/30 12:06:39;;;;;;;18.45;4.25;;;7.40;69.30;;;;;;5090771;28;20233;-70
2022/01/30 12:09:24;;;;;;;15.48;4.20;;;7.40;68.80;;;;;;5093679;27;20251;-70
2022/01/30 12:11:54;;;;;;;11.93;4.20;;;7.40;69.20;;;;;;5096052;28;20208;-72
2022/01/30 12:14:56;;;;;;;23.58;4.57;;;7.30;68.70;;;;;;5113748;27;21964;-70
2022/01/30 12:17:49;;;;;;;20.73;5.05;;;7.40;69.20;;;;;;5112297;27;20296;-72
2022/01/30 12:20:19;;;;;;;15.85;4.93;;;7.30;69.10;;;;;;5115816;27;20382;-71
2022/01/30 12:22:48;;;;;;;15.60;5.22;;;7.30;69.00;;;;;;5115265;27;20669;-71
2022/01/30 12:25:30;;;;;;;12.10;3.65;;;7.30;68.90;;;;;;5096927;27;20219;-72
2022/01/30 12:28:01;;;;;;;17.08;4.35;;;7.40;69.00;;;;;;5097977;28;20201;-72
2022/01/30 12:30:37;;;;;;;12.35;3.60;;;7.40;68.80;;;;;;5113012;27;20824;-74
2022/01/30 12:33:33;;;;;;;12.02;3.85;;;7.40;69.20;;;;;;5113153;27;20204;-70
2022/01/30 12:36:10;;;;;;;15.68;3.40;;;7.40;68.70;;;;;;5111319;27;20231;-72
2022/01/30 12:38:38;;;;;;;14.18;3.67;;;7.40;68.60;;;;;;5102704;28;20275;-70
2022/01/30 12:41:14;;;;;;;16.00;4.00;;;7.40;69.00;;;;;;5096299;27;20702;-70
2022/01/30 12:43:42;;;;;;;11.02;3.60;;;7.40;68.40;;;;;;5087417;27;20851;-72
2022/01/30 12:46:11;;;;;;;12.80;4.10;;;7.50;68.60;;;;;;5117989;27;20314;-71
2022/01/30 12:48:40;;;;;;;15.40;3.88;;;7.50;68.80;;;;;;5096360;27;20253;-72
2022/01/30 12:51:13;;;;;;;14.98;3.80;;;7.50;68.60;;;;;;5110083;27;20205;-71
2022/01/30 12:53:42;;;;;;;18.92;4.28;;;7.50;68.70;;;;;;5098515;27;20203;-72
2022/01/30 12:56:11;;;;;;;14.52;4.72;;;7.50;68.80;;;;;;5112709;27;20239;-71
2022/01/30 12:58:48;;;;;;;45.38;21.90;;;7.60;68.60;;;;;;5109908;27;20211;-72
2022/01/30 13:01:16;;;;;;;18.90;7.80;;;7.60;68.30;;;;;;5111806;27;20295;-71
2022/01/30 13:03:45;;;;;;;18.52;5.35;;;7.50;68.40;;;;;;5110344;27;20192;-71
2022/01/30 13:06:30;;;;;;;13.82;4.32;;;7.60;68.60;;;;;;5116686;27;20229;-71
2022/01/30 13:08:58;;;;;;;17.08;4.07;;;7.60;68.60;;;;;;5113344;27;20203;-72
2022/01/30 13:11:26;;;;;;;17.98;4.40;;;7.50;68.40;;;;;;5111500;27;20215;-71
2022/01/30 13:13:56;;;;;;;16.05;4.30;;;7.50;68.40;;;;;;5115156;27;20195;-71
2022/01/30 13:16:30;;;;;;;19.23;4.43;;;7.50;68.20;;;;;;5113959;27;20339;-71
2022/01/30 13:18:58;;;;;;;26.55;5.13;;;7.50;68.50;;;;;;5114700;27;20208;-70
2022/01/30 13:21:31;;;;;;;17.40;4.32;;;7.40;68.30;;;;;;5116990;27;21184;-71
2022/01/30 13:24:00;;;;;;;21.80;4.55;;;7.40;68.30;;;;;;5115603;27;20250;-69
2022/01/30 13:26:49;;;;;;;16.83;4.38;;;7.40;68.50;;;;;;5089366;27;20217;-71
2022/01/30 13:29:19;;;;;;;15.85;5.43;;;7.50;68.50;;;;;;5104937;27;20227;-72
2022/01/30 13:31:49;;;;;;;19.33;4.93;;;7.50;68.30;;;;;;5115433;27;20223;-71
2022/01/30 13:34:23;;;;;;;13.32;3.70;;;7.40;68.30;;;;;;5115652;27;20199;-72
2022/01/30 13:36:58;;;;;;;20.95;5.25;;;7.40;68.00;;;;;;5099134;28;20287;-72
2022/01/30 13:39:34;;;;;;;14.45;4.15;;;7.40;68.60;;;;;;5113491;27;20200;-73
2022/01/30 13:42:29;;;;;;;13.13;4.15;;;7.50;68.50;;;;;;5093434;28;20206;-72
2022/01/30 13:48:03;;;;;;;16.13;4.28;;;7.50;68.50;;;;;;5109683;27;20243;-72
2022/01/30 13:50:35;;;;;;;19.90;4.38;;;7.50;68.60;;;;;;5112878;27;20694;-73
2022/01/30 13:53:07;;;;;;;30.30;5.63;;;7.50;68.40;;;;;;5112956;27;20199;-72
2022/01/30 13:55:37;;;;;;;21.60;4.72;;;7.50;67.70;;;;;;5094186;27;20214;-72
2022/01/30 13:58:06;;;;;;;15.50;4.05;;;7.50;68.30;;;;;;5115863;27;20200;-72
2022/01/30 14:00:36;;;;;;;13.45;4.50;;;7.60;68.30;;;;;;5113607;27;20240;-73
2022/01/30 14:03:06;;;;;;;22.33;4.68;;;7.60;68.40;;;;;;5119744;27;20202;-72
2022/01/30 14:05:38;;;;;;;23.65;4.90;;;7.60;68.30;;;;;;5102597;27;20300;-72
2022/01/30 14:08:13;;;;;;;16.92;5.05;;;7.60;68.20;;;;;;5115622;27;20252;-72
2022/01/30 14:10:42;;;;;;;20.67;4.63;;;7.60;68.20;;;;;;5113258;27;20214;-72